sensor_id;sensor_type;location;lat;lon;timestamp;P1;durP1;ratioP1;P2;durP2;ratioP2
3274;SDS011;1649;53.672;10.064;2024-02-23T00:01:03;3.87;;;1.20;;
3274;SDS011;1649;53.672;10.064;2024-02-23T00:03:29;3.40;;;1.10;;
3274;SDS011;1649;53.672;10.064;2024-02-23T00:05:55;3.30;;;1.20;;
3274;SDS011;1649;53.672;10.064;2024-02-23T00:08:20;2.93;;;1.03;;
3274;SDS011;1649;53.672;10.064;2024-02-23T00:10:46;3.37;;;1.07;;
3274;SDS011;1649;53.672;10.064;2024-02-23T00:13:11;4.73;;;1.20;;
3274;SDS011;1649;53.672;10.064;2024-02-23T00:15:38;4.20;;;1.30;;
3274;SDS011;1649;53.672;10.064;2024-02-23T00:18:03;3.83;;;1.13;;
3274;SDS011;1649;53.672;10.064;2024-02-23T00:20:29;3.10;;;1.30;;
3274;SDS011;1649;53.672;10.064;2024-02-23T00:22:55;4.00;;;1.10;;
3274;SDS011;1649;53.672;10.064;2024-02-23T00:25:20;4.07;;;1.30;;
3274;SDS011;1649;53.672;10.064;2024-02-23T00:27:46;4.43;;;1.40;;
3274;SDS011;1649;53.672;10.064;2024-02-23T00:30:12;3.77;;;1.67;;
3274;SDS011;1649;53.672;10.064;2024-02-23T00:32:38;3.43;;;1.50;;
3274;SDS011;1649;53.672;10.064;2024-02-23T00:35:04;3.70;;;1.67;;
3274;SDS011;1649;53.672;10.064;2024-02-23T00:37:30;4.63;;;1.50;;
3274;SDS011;1649;53.672;10.064;2024-02-23T00:40:00;4.17;;;2.00;;
3274;SDS011;1649;53.672;10.064;2024-02-23T00:42:29;4.43;;;1.70;;
3274;SDS011;1649;53.672;10.064;2024-02-23T00:44:55;3.23;;;1.60;;
3274;SDS011;1649;53.672;10.064;2024-02-23T00:47:21;4.10;;;1.40;;
3274;SDS011;1649;53.672;10.064;2024-02-23T00:49:46;3.87;;;1.40;;
3274;SDS011;1649;53.672;10.064;2024-02-23T00:52:12;3.40;;;1.33;;
3274;SDS011;1649;53.672;10.064;2024-02-23T00:54:37;3.53;;;1.30;;
3274;SDS011;1649;53.672;10.064;2024-02-23T00:57:03;3.20;;;1.10;;
3274;SDS011;1649;53.672;10.064;2024-02-23T00:59:28;4.00;;;1.10;;
3274;SDS011;1649;53.672;10.064;2024-02-23T01:01:54;3.77;;;1.10;;
3274;SDS011;1649;53.672;10.064;2024-02-23T01:04:20;2.90;;;0.93;;
3274;SDS011;1649;53.672;10.064;2024-02-23T01:06:46;3.00;;;0.90;;
3274;SDS011;1649;53.672;10.064;2024-02-23T01:09:11;2.77;;;0.93;;
3274;SDS011;1649;53.672;10.064;2024-02-23T01:11:37;4.27;;;1.00;;
3274;SDS011;1649;53.672;10.064;2024-02-23T01:14:02;3.77;;;1.37;;
3274;SDS011;1649;53.672;10.064;2024-02-23T01:16:28;2.80;;;0.93;;
3274;SDS011;1649;53.672;10.064;2024-02-23T01:18:54;2.70;;;0.90;;
3274;SDS011;1649;53.672;10.064;2024-02-23T01:21:19;2.77;;;0.90;;
3274;SDS011;1649;53.672;10.064;2024-02-23T01:23:45;2.97;;;1.10;;
3274;SDS011;1649;53.672;10.064;2024-02-23T01:26:10;2.90;;;1.00;;
3274;SDS011;1649;53.672;10.064;2024-02-23T01:28:36;3.10;;;0.90;;
3274;SDS011;1649;53.672;10.064;2024-02-23T01:31:01;2.87;;;0.90;;
3274;SDS011;1649;53.672;10.064;2024-02-23T01:33:29;2.80;;;0.90;;
3274;SDS011;1649;53.672;10.064;2024-02-23T01:35:54;2.97;;;1.07;;
3274;SDS011;1649;53.672;10.064;2024-02-23T01:38:21;3.23;;;1.10;;
3274;SDS011;1649;53.672;10.064;2024-02-23T01:40:47;2.70;;;0.90;;
3274;SDS011;1649;53.672;10.064;2024-02-23T01:43:12;2.83;;;1.00;;
3274;SDS011;1649;53.672;10.064;2024-02-23T01:45:38;2.60;;;0.80;;
3274;SDS011;1649;53.672;10.064;2024-02-23T01:48:04;2.90;;;0.93;;
3274;SDS011;1649;53.672;10.064;2024-02-23T01:50:30;2.80;;;0.90;;
3274;SDS011;1649;53.672;10.064;2024-02-23T01:52:57;3.00;;;1.00;;
3274;SDS011;1649;53.672;10.064;2024-02-23T01:55:26;2.80;;;1.00;;
3274;SDS011;1649;53.672;10.064;2024-02-23T01:57:52;3.30;;;0.90;;
3274;SDS011;1649;53.672;10.064;2024-02-23T02:00:18;2.70;;;0.80;;
3274;SDS011;1649;53.672;10.064;2024-02-23T02:02:45;2.57;;;0.70;;
3274;SDS011;1649;53.672;10.064;2024-02-23T02:05:13;2.83;;;0.80;;
3274;SDS011;1649;53.672;10.064;2024-02-23T02:07:39;2.63;;;0.80;;
3274;SDS011;1649;53.672;10.064;2024-02-23T02:10:06;2.50;;;0.70;;
3274;SDS011;1649;53.672;10.064;2024-02-23T02:12:34;2.80;;;0.80;;
3274;SDS011;1649;53.672;10.064;2024-02-23T02:14:59;3.10;;;0.90;;
3274;SDS011;1649;53.672;10.064;2024-02-23T02:17:26;2.67;;;0.90;;
3274;SDS011;1649;53.672;10.064;2024-02-23T02:19:52;2.60;;;0.80;;
3274;SDS011;1649;53.672;10.064;2024-02-23T02:22:19;2.60;;;0.70;;
3274;SDS011;1649;53.672;10.064;2024-02-23T02:24:44;4.43;;;0.80;;
3274;SDS011;1649;53.672;10.064;2024-02-23T02:27:11;2.70;;;0.90;;
3274;SDS011;1649;53.672;10.064;2024-02-23T02:29:37;2.50;;;0.70;;
3274;SDS011;1649;53.672;10.064;2024-02-23T02:32:03;3.53;;;0.97;;
3274;SDS011;1649;53.672;10.064;2024-02-23T02:34:29;3.00;;;0.80;;
3274;SDS011;1649;53.672;10.064;2024-02-23T02:36:54;4.50;;;0.80;;
3274;SDS011;1649;53.672;10.064;2024-02-23T02:39:20;2.50;;;0.70;;
3274;SDS011;1649;53.672;10.064;2024-02-23T02:41:47;2.90;;;0.80;;
3274;SDS011;1649;53.672;10.064;2024-02-23T02:44:13;2.60;;;0.70;;
3274;SDS011;1649;53.672;10.064;2024-02-23T02:46:40;2.70;;;0.83;;
3274;SDS011;1649;53.672;10.064;2024-02-23T02:49:05;2.60;;;0.90;;
3274;SDS011;1649;53.672;10.064;2024-02-23T02:51:31;2.60;;;0.70;;
3274;SDS011;1649;53.672;10.064;2024-02-23T02:53:56;2.80;;;0.80;;
3274;SDS011;1649;53.672;10.064;2024-02-23T02:56:22;2.70;;;0.87;;
3274;SDS011;1649;53.672;10.064;2024-02-23T02:58:48;4.40;;;0.90;;
3274;SDS011;1649;53.672;10.064;2024-02-23T03:01:13;2.53;;;0.70;;
3274;SDS011;1649;53.672;10.064;2024-02-23T03:03:39;2.70;;;0.90;;
3274;SDS011;1649;53.672;10.064;2024-02-23T03:06:05;2.60;;;0.80;;
3274;SDS011;1649;53.672;10.064;2024-02-23T03:08:31;2.70;;;0.90;;
3274;SDS011;1649;53.672;10.064;2024-02-23T03:10:56;2.70;;;0.80;;
3274;SDS011;1649;53.672;10.064;2024-02-23T03:13:22;2.80;;;0.87;;
3274;SDS011;1649;53.672;10.064;2024-02-23T03:15:47;2.90;;;0.90;;
3274;SDS011;1649;53.672;10.064;2024-02-23T03:18:13;2.70;;;0.90;;
3274;SDS011;1649;53.672;10.064;2024-02-23T03:20:40;3.10;;;1.00;;
3274;SDS011;1649;53.672;10.064;2024-02-23T03:23:06;3.37;;;1.00;;
3274;SDS011;1649;53.672;10.064;2024-02-23T03:25:32;5.30;;;1.40;;
3274;SDS011;1649;53.672;10.064;2024-02-23T03:27:57;3.37;;;1.00;;
3274;SDS011;1649;53.672;10.064;2024-02-23T03:30:23;3.70;;;1.00;;
3274;SDS011;1649;53.672;10.064;2024-02-23T03:32:48;2.90;;;1.00;;
3274;SDS011;1649;53.672;10.064;2024-02-23T03:35:14;2.60;;;0.80;;
3274;SDS011;1649;53.672;10.064;2024-02-23T03:37:39;4.90;;;1.20;;
3274;SDS011;1649;53.672;10.064;2024-02-23T03:40:05;3.57;;;0.90;;
3274;SDS011;1649;53.672;10.064;2024-02-23T03:42:31;3.67;;;1.10;;
3274;SDS011;1649;53.672;10.064;2024-02-23T03:44:57;3.10;;;1.00;;
3274;SDS011;1649;53.672;10.064;2024-02-23T03:47:22;2.70;;;0.90;;
3274;SDS011;1649;53.672;10.064;2024-02-23T03:49:48;2.90;;;0.90;;
3274;SDS011;1649;53.672;10.064;2024-02-23T03:52:13;3.93;;;1.03;;
3274;SDS011;1649;53.672;10.064;2024-02-23T03:54:39;5.63;;;1.00;;
3274;SDS011;1649;53.672;10.064;2024-02-23T03:57:04;3.40;;;1.20;;
3274;SDS011;1649;53.672;10.064;2024-02-23T03:59:30;3.27;;;1.10;;
3274;SDS011;1649;53.672;10.064;2024-02-23T04:01:55;3.37;;;1.20;;
3274;SDS011;1649;53.672;10.064;2024-02-23T04:04:21;4.03;;;1.40;;
3274;SDS011;1649;53.672;10.064;2024-02-23T04:06:47;3.40;;;1.40;;
3274;SDS011;1649;53.672;10.064;2024-02-23T04:09:12;3.17;;;1.47;;
3274;SDS011;1649;53.672;10.064;2024-02-23T04:11:38;4.20;;;1.33;;
3274;SDS011;1649;53.672;10.064;2024-02-23T04:14:04;3.67;;;1.53;;
3274;SDS011;1649;53.672;10.064;2024-02-23T04:16:32;3.00;;;1.17;;
3274;SDS011;1649;53.672;10.064;2024-02-23T04:18:57;3.70;;;1.17;;
3274;SDS011;1649;53.672;10.064;2024-02-23T04:21:24;4.30;;;1.37;;
3274;SDS011;1649;53.672;10.064;2024-02-23T04:23:50;3.57;;;1.50;;
3274;SDS011;1649;53.672;10.064;2024-02-23T04:26:15;4.63;;;1.90;;
3274;SDS011;1649;53.672;10.064;2024-02-23T04:28:41;4.13;;;1.90;;
3274;SDS011;1649;53.672;10.064;2024-02-23T04:31:10;6.47;;;2.00;;
3274;SDS011;1649;53.672;10.064;2024-02-23T04:33:36;4.23;;;1.57;;
3274;SDS011;1649;53.672;10.064;2024-02-23T04:36:02;4.80;;;1.50;;
3274;SDS011;1649;53.672;10.064;2024-02-23T04:38:29;6.23;;;1.60;;
3274;SDS011;1649;53.672;10.064;2024-02-23T04:40:55;3.97;;;1.20;;
3274;SDS011;1649;53.672;10.064;2024-02-23T04:43:21;3.37;;;1.30;;
3274;SDS011;1649;53.672;10.064;2024-02-23T04:45:48;4.67;;;1.40;;
3274;SDS011;1649;53.672;10.064;2024-02-23T04:48:13;3.77;;;1.60;;
3274;SDS011;1649;53.672;10.064;2024-02-23T04:50:39;4.03;;;1.33;;
3274;SDS011;1649;53.672;10.064;2024-02-23T04:53:04;4.43;;;1.83;;
3274;SDS011;1649;53.672;10.064;2024-02-23T04:55:30;4.20;;;1.50;;
3274;SDS011;1649;53.672;10.064;2024-02-23T04:57:55;4.50;;;1.67;;
3274;SDS011;1649;53.672;10.064;2024-02-23T05:00:21;4.50;;;2.33;;
3274;SDS011;1649;53.672;10.064;2024-02-23T05:02:47;3.90;;;1.73;;
3274;SDS011;1649;53.672;10.064;2024-02-23T05:05:12;4.87;;;1.93;;
3274;SDS011;1649;53.672;10.064;2024-02-23T05:07:37;3.60;;;1.30;;
3274;SDS011;1649;53.672;10.064;2024-02-23T05:10:03;6.00;;;1.63;;
3274;SDS011;1649;53.672;10.064;2024-02-23T05:12:29;7.23;;;2.13;;
3274;SDS011;1649;53.672;10.064;2024-02-23T05:14:54;5.70;;;2.33;;
3274;SDS011;1649;53.672;10.064;2024-02-23T05:17:20;9.60;;;2.13;;
3274;SDS011;1649;53.672;10.064;2024-02-23T05:19:45;5.13;;;1.97;;
3274;SDS011;1649;53.672;10.064;2024-02-23T05:22:11;6.23;;;2.40;;
3274;SDS011;1649;53.672;10.064;2024-02-23T05:24:37;4.50;;;2.57;;
3274;SDS011;1649;53.672;10.064;2024-02-23T05:27:03;4.50;;;1.97;;
3274;SDS011;1649;53.672;10.064;2024-02-23T05:29:28;6.17;;;2.77;;
3274;SDS011;1649;53.672;10.064;2024-02-23T05:31:54;6.93;;;2.40;;
3274;SDS011;1649;53.672;10.064;2024-02-23T05:34:20;5.40;;;2.47;;
3274;SDS011;1649;53.672;10.064;2024-02-23T05:36:46;5.20;;;2.40;;
3274;SDS011;1649;53.672;10.064;2024-02-23T05:39:12;5.50;;;2.27;;
3274;SDS011;1649;53.672;10.064;2024-02-23T05:41:40;4.97;;;2.60;;
3274;SDS011;1649;53.672;10.064;2024-02-23T05:44:05;7.40;;;2.47;;
3274;SDS011;1649;53.672;10.064;2024-02-23T05:46:32;6.67;;;2.30;;
3274;SDS011;1649;53.672;10.064;2024-02-23T05:48:58;7.13;;;2.80;;
3274;SDS011;1649;53.672;10.064;2024-02-23T05:51:23;5.10;;;2.30;;
3274;SDS011;1649;53.672;10.064;2024-02-23T05:53:49;8.30;;;2.73;;
3274;SDS011;1649;53.672;10.064;2024-02-23T05:56:15;5.63;;;2.23;;
3274;SDS011;1649;53.672;10.064;2024-02-23T05:58:40;7.10;;;3.40;;
3274;SDS011;1649;53.672;10.064;2024-02-23T06:01:06;5.70;;;2.30;;
3274;SDS011;1649;53.672;10.064;2024-02-23T06:03:32;6.97;;;2.40;;
3274;SDS011;1649;53.672;10.064;2024-02-23T06:05:58;8.50;;;2.97;;
3274;SDS011;1649;53.672;10.064;2024-02-23T06:08:23;6.13;;;2.20;;
3274;SDS011;1649;53.672;10.064;2024-02-23T06:10:49;4.60;;;2.53;;
3274;SDS011;1649;53.672;10.064;2024-02-23T06:13:14;5.73;;;2.13;;
3274;SDS011;1649;53.672;10.064;2024-02-23T06:15:40;4.10;;;1.80;;
3274;SDS011;1649;53.672;10.064;2024-02-23T06:18:06;3.90;;;1.90;;
3274;SDS011;1649;53.672;10.064;2024-02-23T06:20:31;9.90;;;2.27;;
3274;SDS011;1649;53.672;10.064;2024-02-23T06:22:57;3.90;;;2.10;;
3274;SDS011;1649;53.672;10.064;2024-02-23T06:25:22;3.87;;;1.53;;
3274;SDS011;1649;53.672;10.064;2024-02-23T06:27:48;4.87;;;2.00;;
3274;SDS011;1649;53.672;10.064;2024-02-23T06:30:13;5.57;;;2.13;;
3274;SDS011;1649;53.672;10.064;2024-02-23T06:32:39;7.80;;;1.87;;
3274;SDS011;1649;53.672;10.064;2024-02-23T06:35:05;7.17;;;2.77;;
3274;SDS011;1649;53.672;10.064;2024-02-23T06:37:31;7.70;;;2.00;;
3274;SDS011;1649;53.672;10.064;2024-02-23T06:39:57;4.87;;;2.03;;
3274;SDS011;1649;53.672;10.064;2024-02-23T06:42:23;5.93;;;1.97;;
3274;SDS011;1649;53.672;10.064;2024-02-23T06:44:50;4.10;;;1.80;;
3274;SDS011;1649;53.672;10.064;2024-02-23T06:47:16;4.00;;;1.90;;
3274;SDS011;1649;53.672;10.064;2024-02-23T06:49:41;9.23;;;2.40;;
3274;SDS011;1649;53.672;10.064;2024-02-23T06:52:08;4.43;;;1.90;;
3274;SDS011;1649;53.672;10.064;2024-02-23T06:54:34;6.47;;;2.30;;
3274;SDS011;1649;53.672;10.064;2024-02-23T06:56:59;4.60;;;2.30;;
3274;SDS011;1649;53.672;10.064;2024-02-23T06:59:25;6.03;;;2.63;;
3274;SDS011;1649;53.672;10.064;2024-02-23T07:01:50;6.03;;;2.00;;
3274;SDS011;1649;53.672;10.064;2024-02-23T07:04:17;5.23;;;2.60;;
3274;SDS011;1649;53.672;10.064;2024-02-23T07:06:43;5.00;;;2.40;;
3274;SDS011;1649;53.672;10.064;2024-02-23T07:09:09;5.20;;;2.47;;
3274;SDS011;1649;53.672;10.064;2024-02-23T07:11:36;6.57;;;2.40;;
3274;SDS011;1649;53.672;10.064;2024-02-23T07:14:02;7.10;;;2.43;;
3274;SDS011;1649;53.672;10.064;2024-02-23T07:16:27;6.93;;;2.63;;
3274;SDS011;1649;53.672;10.064;2024-02-23T07:18:53;7.37;;;2.50;;
3274;SDS011;1649;53.672;10.064;2024-02-23T07:21:19;7.50;;;2.77;;
3274;SDS011;1649;53.672;10.064;2024-02-23T07:23:45;7.27;;;2.80;;
3274;SDS011;1649;53.672;10.064;2024-02-23T07:26:10;4.60;;;2.30;;
3274;SDS011;1649;53.672;10.064;2024-02-23T07:28:35;9.47;;;2.73;;
3274;SDS011;1649;53.672;10.064;2024-02-23T07:31:01;10.80;;;2.50;;
3274;SDS011;1649;53.672;10.064;2024-02-23T07:33:26;7.60;;;2.47;;
3274;SDS011;1649;53.672;10.064;2024-02-23T07:35:52;7.10;;;2.87;;
3274;SDS011;1649;53.672;10.064;2024-02-23T07:38:17;6.93;;;2.70;;
3274;SDS011;1649;53.672;10.064;2024-02-23T07:40:44;4.60;;;2.03;;
3274;SDS011;1649;53.672;10.064;2024-02-23T07:43:09;6.00;;;2.53;;
3274;SDS011;1649;53.672;10.064;2024-02-23T07:45:38;5.00;;;2.77;;
3274;SDS011;1649;53.672;10.064;2024-02-23T07:48:04;9.53;;;3.00;;
3274;SDS011;1649;53.672;10.064;2024-02-23T07:50:30;6.70;;;2.87;;
3274;SDS011;1649;53.672;10.064;2024-02-23T07:52:55;7.90;;;2.87;;
3274;SDS011;1649;53.672;10.064;2024-02-23T07:55:21;5.80;;;3.10;;
3274;SDS011;1649;53.672;10.064;2024-02-23T07:57:47;5.57;;;2.77;;
3274;SDS011;1649;53.672;10.064;2024-02-23T08:00:12;5.50;;;3.00;;
3274;SDS011;1649;53.672;10.064;2024-02-23T08:02:39;7.07;;;2.80;;
3274;SDS011;1649;53.672;10.064;2024-02-23T08:05:05;5.63;;;2.97;;
3274;SDS011;1649;53.672;10.064;2024-02-23T08:07:31;5.63;;;2.67;;
3274;SDS011;1649;53.672;10.064;2024-02-23T08:09:57;8.50;;;2.97;;
3274;SDS011;1649;53.672;10.064;2024-02-23T08:12:22;8.00;;;3.03;;
3274;SDS011;1649;53.672;10.064;2024-02-23T08:21:35;10.47;;;2.87;;
3274;SDS011;1649;53.672;10.064;2024-02-23T08:24:01;6.10;;;2.70;;
3274;SDS011;1649;53.672;10.064;2024-02-23T08:26:27;8.57;;;3.17;;
3274;SDS011;1649;53.672;10.064;2024-02-23T08:28:53;7.47;;;2.93;;
3274;SDS011;1649;53.672;10.064;2024-02-23T08:31:18;6.43;;;2.60;;
3274;SDS011;1649;53.672;10.064;2024-02-23T08:33:44;4.40;;;2.20;;
3274;SDS011;1649;53.672;10.064;2024-02-23T08:36:10;5.83;;;2.20;;
3274;SDS011;1649;53.672;10.064;2024-02-23T08:38:35;8.47;;;2.67;;
3274;SDS011;1649;53.672;10.064;2024-02-23T08:41:02;5.60;;;2.17;;
3274;SDS011;1649;53.672;10.064;2024-02-23T08:43:27;5.90;;;1.67;;
3274;SDS011;1649;53.672;10.064;2024-02-23T08:45:53;5.90;;;2.50;;
3274;SDS011;1649;53.672;10.064;2024-02-23T08:48:18;7.80;;;2.50;;
3274;SDS011;1649;53.672;10.064;2024-02-23T08:50:44;5.43;;;1.57;;
3274;SDS011;1649;53.672;10.064;2024-02-23T08:53:09;7.37;;;2.50;;
3274;SDS011;1649;53.672;10.064;2024-02-23T08:55:35;5.83;;;1.87;;
3274;SDS011;1649;53.672;10.064;2024-02-23T08:58:01;9.77;;;2.30;;
3274;SDS011;1649;53.672;10.064;2024-02-23T09:00:26;6.70;;;2.10;;
3274;SDS011;1649;53.672;10.064;2024-02-23T09:02:51;8.57;;;2.30;;
3274;SDS011;1649;53.672;10.064;2024-02-23T09:05:17;5.40;;;2.27;;
3274;SDS011;1649;53.672;10.064;2024-02-23T09:07:42;5.60;;;2.00;;
3274;SDS011;1649;53.672;10.064;2024-02-23T09:10:08;6.83;;;2.50;;
3274;SDS011;1649;53.672;10.064;2024-02-23T09:12:34;5.80;;;2.27;;
3274;SDS011;1649;53.672;10.064;2024-02-23T09:14:59;3.80;;;1.70;;
3274;SDS011;1649;53.672;10.064;2024-02-23T09:17:25;6.70;;;2.40;;
3274;SDS011;1649;53.672;10.064;2024-02-23T09:19:50;5.20;;;2.30;;
3274;SDS011;1649;53.672;10.064;2024-02-23T09:22:16;9.17;;;2.00;;
3274;SDS011;1649;53.672;10.064;2024-02-23T09:24:41;7.87;;;1.90;;
3274;SDS011;1649;53.672;10.064;2024-02-23T09:27:07;6.60;;;2.20;;
3274;SDS011;1649;53.672;10.064;2024-02-23T09:29:33;5.07;;;2.00;;
3274;SDS011;1649;53.672;10.064;2024-02-23T09:31:59;5.70;;;2.47;;
3274;SDS011;1649;53.672;10.064;2024-02-23T09:34:25;6.23;;;2.47;;
3274;SDS011;1649;53.672;10.064;2024-02-23T09:36:50;12.23;;;1.97;;
3274;SDS011;1649;53.672;10.064;2024-02-23T09:39:16;6.83;;;2.33;;
3274;SDS011;1649;53.672;10.064;2024-02-23T09:41:42;6.00;;;1.90;;
3274;SDS011;1649;53.672;10.064;2024-02-23T09:44:08;8.37;;;2.10;;
3274;SDS011;1649;53.672;10.064;2024-02-23T09:46:34;9.80;;;1.97;;
3274;SDS011;1649;53.672;10.064;2024-02-23T09:49:02;4.73;;;1.90;;
3274;SDS011;1649;53.672;10.064;2024-02-23T09:51:28;6.70;;;1.60;;
3274;SDS011;1649;53.672;10.064;2024-02-23T09:53:54;4.97;;;1.97;;
3274;SDS011;1649;53.672;10.064;2024-02-23T09:56:21;5.57;;;2.07;;
3274;SDS011;1649;53.672;10.064;2024-02-23T09:58:51;5.53;;;2.00;;
3274;SDS011;1649;53.672;10.064;2024-02-23T10:01:19;8.47;;;2.00;;
3274;SDS011;1649;53.672;10.064;2024-02-23T10:03:52;5.40;;;2.20;;
3274;SDS011;1649;53.672;10.064;2024-02-23T10:06:19;8.30;;;2.00;;
3274;SDS011;1649;53.672;10.064;2024-02-23T10:08:45;5.87;;;2.03;;
3274;SDS011;1649;53.672;10.064;2024-02-23T10:11:10;8.40;;;1.70;;
3274;SDS011;1649;53.672;10.064;2024-02-23T10:13:36;5.43;;;2.13;;
3274;SDS011;1649;53.672;10.064;2024-02-23T10:16:01;5.63;;;2.00;;
3274;SDS011;1649;53.672;10.064;2024-02-23T10:18:27;5.97;;;2.10;;
3274;SDS011;1649;53.672;10.064;2024-02-23T10:20:53;5.10;;;2.27;;
3274;SDS011;1649;53.672;10.064;2024-02-23T10:23:18;4.27;;;1.87;;
3274;SDS011;1649;53.672;10.064;2024-02-23T10:25:45;7.40;;;2.30;;
3274;SDS011;1649;53.672;10.064;2024-02-23T10:28:10;5.10;;;1.87;;
3274;SDS011;1649;53.672;10.064;2024-02-23T10:30:36;6.10;;;2.60;;
3274;SDS011;1649;53.672;10.064;2024-02-23T10:33:03;6.23;;;2.37;;
3274;SDS011;1649;53.672;10.064;2024-02-23T10:35:30;6.83;;;2.60;;
3274;SDS011;1649;53.672;10.064;2024-02-23T10:38:00;4.30;;;2.43;;
3274;SDS011;1649;53.672;10.064;2024-02-23T10:40:26;9.10;;;2.33;;
3274;SDS011;1649;53.672;10.064;2024-02-23T10:42:56;5.63;;;2.20;;
3274;SDS011;1649;53.672;10.064;2024-02-23T10:45:23;5.77;;;2.37;;
3274;SDS011;1649;53.672;10.064;2024-02-23T10:47:50;7.63;;;2.80;;
3274;SDS011;1649;53.672;10.064;2024-02-23T10:50:16;6.50;;;2.50;;
3274;SDS011;1649;53.672;10.064;2024-02-23T10:52:44;10.67;;;2.43;;
3274;SDS011;1649;53.672;10.064;2024-02-23T10:55:10;7.87;;;2.50;;
3274;SDS011;1649;53.672;10.064;2024-02-23T10:57:36;9.43;;;2.63;;
3274;SDS011;1649;53.672;10.064;2024-02-23T11:00:02;16.97;;;2.67;;
3274;SDS011;1649;53.672;10.064;2024-02-23T11:02:35;4.53;;;1.90;;
3274;SDS011;1649;53.672;10.064;2024-02-23T11:05:05;7.23;;;2.77;;
3274;SDS011;1649;53.672;10.064;2024-02-23T11:07:31;7.13;;;2.80;;
3274;SDS011;1649;53.672;10.064;2024-02-23T11:10:00;6.27;;;2.43;;
3274;SDS011;1649;53.672;10.064;2024-02-23T11:12:26;3.77;;;1.60;;
3274;SDS011;1649;53.672;10.064;2024-02-23T11:14:57;5.47;;;2.00;;
3274;SDS011;1649;53.672;10.064;2024-02-23T11:17:25;7.30;;;2.30;;
3274;SDS011;1649;53.672;10.064;2024-02-23T11:19:54;7.10;;;2.30;;
3274;SDS011;1649;53.672;10.064;2024-02-23T11:22:35;4.33;;;2.07;;
3274;SDS011;1649;53.672;10.064;2024-02-23T11:25:04;6.00;;;2.10;;
3274;SDS011;1649;53.672;10.064;2024-02-23T11:27:31;6.67;;;2.17;;
3274;SDS011;1649;53.672;10.064;2024-02-23T11:29:59;5.80;;;2.40;;
3274;SDS011;1649;53.672;10.064;2024-02-23T11:32:36;6.17;;;1.87;;
3274;SDS011;1649;53.672;10.064;2024-02-23T11:35:07;9.80;;;2.70;;
3274;SDS011;1649;53.672;10.064;2024-02-23T11:37:43;4.47;;;1.67;;
3274;SDS011;1649;53.672;10.064;2024-02-23T11:40:13;7.50;;;2.20;;
3274;SDS011;1649;53.672;10.064;2024-02-23T11:42:39;5.57;;;2.00;;
3274;SDS011;1649;53.672;10.064;2024-02-23T11:45:06;8.43;;;1.73;;
3274;SDS011;1649;53.672;10.064;2024-02-23T11:47:32;6.30;;;1.80;;
3274;SDS011;1649;53.672;10.064;2024-02-23T11:49:58;5.23;;;1.90;;
3274;SDS011;1649;53.672;10.064;2024-02-23T11:52:23;4.60;;;1.90;;
3274;SDS011;1649;53.672;10.064;2024-02-23T11:54:49;8.80;;;2.20;;
3274;SDS011;1649;53.672;10.064;2024-02-23T11:57:14;5.17;;;1.77;;
3274;SDS011;1649;53.672;10.064;2024-02-23T11:59:40;4.87;;;1.80;;
3274;SDS011;1649;53.672;10.064;2024-02-23T12:02:06;8.10;;;2.30;;
3274;SDS011;1649;53.672;10.064;2024-02-23T12:04:32;3.97;;;1.70;;
3274;SDS011;1649;53.672;10.064;2024-02-23T12:06:58;7.10;;;1.73;;
3274;SDS011;1649;53.672;10.064;2024-02-23T12:09:24;3.63;;;1.40;;
3274;SDS011;1649;53.672;10.064;2024-02-23T12:11:49;3.77;;;1.47;;
3274;SDS011;1649;53.672;10.064;2024-02-23T12:14:16;7.90;;;1.73;;
3274;SDS011;1649;53.672;10.064;2024-02-23T12:16:42;6.10;;;1.73;;
3274;SDS011;1649;53.672;10.064;2024-02-23T12:19:08;7.63;;;1.90;;
3274;SDS011;1649;53.672;10.064;2024-02-23T12:21:34;6.70;;;2.13;;
3274;SDS011;1649;53.672;10.064;2024-02-23T12:24:06;4.80;;;1.27;;
3274;SDS011;1649;53.672;10.064;2024-02-23T12:26:32;5.80;;;2.07;;
3274;SDS011;1649;53.672;10.064;2024-02-23T12:29:02;5.60;;;2.13;;
3274;SDS011;1649;53.672;10.064;2024-02-23T12:31:28;5.20;;;1.83;;
3274;SDS011;1649;53.672;10.064;2024-02-23T12:33:57;5.40;;;1.93;;
3274;SDS011;1649;53.672;10.064;2024-02-23T12:36:23;6.73;;;1.73;;
3274;SDS011;1649;53.672;10.064;2024-02-23T12:38:48;5.20;;;1.60;;
3274;SDS011;1649;53.672;10.064;2024-02-23T12:41:14;7.10;;;1.83;;
3274;SDS011;1649;53.672;10.064;2024-02-23T12:43:40;3.43;;;1.50;;
3274;SDS011;1649;53.672;10.064;2024-02-23T12:46:05;3.93;;;1.80;;
3274;SDS011;1649;53.672;10.064;2024-02-23T12:48:33;6.13;;;1.90;;
3274;SDS011;1649;53.672;10.064;2024-02-23T12:50:58;5.53;;;2.00;;
3274;SDS011;1649;53.672;10.064;2024-02-23T12:53:36;4.87;;;1.50;;
3274;SDS011;1649;53.672;10.064;2024-02-23T12:56:04;7.93;;;1.87;;
3274;SDS011;1649;53.672;10.064;2024-02-23T12:58:32;4.50;;;1.40;;
3274;SDS011;1649;53.672;10.064;2024-02-23T13:00:58;3.70;;;1.57;;
3274;SDS011;1649;53.672;10.064;2024-02-23T13:03:25;6.50;;;1.60;;
3274;SDS011;1649;53.672;10.064;2024-02-23T13:05:57;3.57;;;1.30;;
3274;SDS011;1649;53.672;10.064;2024-02-23T13:08:23;8.60;;;1.80;;
3274;SDS011;1649;53.672;10.064;2024-02-23T13:10:49;4.80;;;1.77;;
3274;SDS011;1649;53.672;10.064;2024-02-23T13:13:16;6.37;;;2.07;;
3274;SDS011;1649;53.672;10.064;2024-02-23T13:15:42;3.57;;;1.53;;
3274;SDS011;1649;53.672;10.064;2024-02-23T13:18:08;5.17;;;1.83;;
3274;SDS011;1649;53.672;10.064;2024-02-23T13:20:34;5.30;;;1.50;;
3274;SDS011;1649;53.672;10.064;2024-02-23T13:23:00;4.57;;;1.60;;
3274;SDS011;1649;53.672;10.064;2024-02-23T13:25:26;5.70;;;1.77;;
3274;SDS011;1649;53.672;10.064;2024-02-23T13:27:52;7.63;;;1.93;;
3274;SDS011;1649;53.672;10.064;2024-02-23T13:30:18;4.90;;;2.07;;
3274;SDS011;1649;53.672;10.064;2024-02-23T13:32:43;5.80;;;3.40;;
3274;SDS011;1649;53.672;10.064;2024-02-23T13:35:09;5.37;;;1.60;;
3274;SDS011;1649;53.672;10.064;2024-02-23T13:37:34;11.33;;;5.63;;
3274;SDS011;1649;53.672;10.064;2024-02-23T13:40:00;4.80;;;1.70;;
3274;SDS011;1649;53.672;10.064;2024-02-23T13:42:25;6.30;;;2.23;;
3274;SDS011;1649;53.672;10.064;2024-02-23T13:44:51;4.50;;;2.20;;
3274;SDS011;1649;53.672;10.064;2024-02-23T13:47:17;7.17;;;2.47;;
3274;SDS011;1649;53.672;10.064;2024-02-23T13:49:42;5.20;;;1.70;;
3274;SDS011;1649;53.672;10.064;2024-02-23T13:52:08;4.93;;;2.87;;
3274;SDS011;1649;53.672;10.064;2024-02-23T13:54:33;4.60;;;2.07;;
3274;SDS011;1649;53.672;10.064;2024-02-23T13:56:59;7.63;;;3.93;;
3274;SDS011;1649;53.672;10.064;2024-02-23T13:59:25;4.10;;;1.20;;
3274;SDS011;1649;53.672;10.064;2024-02-23T14:01:50;4.80;;;1.57;;
3274;SDS011;1649;53.672;10.064;2024-02-23T14:04:17;5.80;;;2.50;;
3274;SDS011;1649;53.672;10.064;2024-02-23T14:06:42;4.83;;;1.97;;
3274;SDS011;1649;53.672;10.064;2024-02-23T14:09:08;5.90;;;1.57;;
3274;SDS011;1649;53.672;10.064;2024-02-23T14:11:34;4.33;;;1.57;;
3274;SDS011;1649;53.672;10.064;2024-02-23T14:14:00;6.47;;;1.73;;
3274;SDS011;1649;53.672;10.064;2024-02-23T14:16:27;6.00;;;2.03;;
3274;SDS011;1649;53.672;10.064;2024-02-23T14:18:52;6.53;;;2.77;;
3274;SDS011;1649;53.672;10.064;2024-02-23T14:21:18;4.30;;;1.80;;
3274;SDS011;1649;53.672;10.064;2024-02-23T14:23:43;7.93;;;1.60;;
3274;SDS011;1649;53.672;10.064;2024-02-23T14:26:09;5.00;;;1.60;;
3274;SDS011;1649;53.672;10.064;2024-02-23T14:28:35;3.80;;;1.80;;
3274;SDS011;1649;53.672;10.064;2024-02-23T14:31:00;3.60;;;1.50;;
3274;SDS011;1649;53.672;10.064;2024-02-23T14:33:26;5.67;;;2.33;;
3274;SDS011;1649;53.672;10.064;2024-02-23T14:35:52;7.30;;;4.20;;
3274;SDS011;1649;53.672;10.064;2024-02-23T14:38:17;3.97;;;1.33;;
3274;SDS011;1649;53.672;10.064;2024-02-23T14:40:43;7.00;;;3.93;;
3274;SDS011;1649;53.672;10.064;2024-02-23T14:43:08;5.13;;;2.27;;
3274;SDS011;1649;53.672;10.064;2024-02-23T14:45:34;4.23;;;1.40;;
3274;SDS011;1649;53.672;10.064;2024-02-23T14:48:00;6.50;;;1.87;;
3274;SDS011;1649;53.672;10.064;2024-02-23T14:50:26;5.13;;;1.40;;
3274;SDS011;1649;53.672;10.064;2024-02-23T14:52:51;4.30;;;1.70;;
3274;SDS011;1649;53.672;10.064;2024-02-23T14:55:17;3.30;;;1.17;;
3274;SDS011;1649;53.672;10.064;2024-02-23T14:57:42;5.07;;;1.63;;
3274;SDS011;1649;53.672;10.064;2024-02-23T15:00:08;4.50;;;1.70;;